sensor_id;sensor_type;location;lat;lon;timestamp;P1;P2;P0
43479;PMS5003;29067;35.492;-97.520;2023-09-19T00:01:32;2;2;
43479;PMS5003;29067;35.492;-97.520;2023-09-19T00:04:00;5;5;
43479;PMS5003;29067;35.492;-97.520;2023-09-19T00:06:29;3;3;
43479;PMS5003;29067;35.492;-97.520;2023-09-19T00:08:57;3;3;
43479;PMS5003;29067;35.492;-97.520;2023-09-19T00:11:25;4;4;
43479;PMS5003;29067;35.492;-97.520;2023-09-19T00:13:54;4;4;
43479;PMS5003;29067;35.492;-97.520;2023-09-19T00:16:23;4;4;
43479;PMS5003;29067;35.492;-97.520;2023-09-19T00:18:51;7;5;
43479;PMS5003;29067;35.492;-97.520;2023-09-19T00:21:19;4;4;
43479;PMS5003;29067;35.492;-97.520;2023-09-19T00:23:48;4;4;
43479;PMS5003;29067;35.492;-97.520;2023-09-19T00:26:16;4;3;
43479;PMS5003;29067;35.492;-97.520;2023-09-19T00:28:44;3;3;
43479;PMS5003;29067;35.492;-97.520;2023-09-19T00:31:12;4;4;
43479;PMS5003;29067;35.492;-97.520;2023-09-19T00:33:41;5;5;
43479;PMS5003;29067;35.492;-97.520;2023-09-19T00:36:09;4;4;
43479;PMS5003;29067;35.492;-97.520;2023-09-19T00:38:37;4;4;
43479;PMS5003;29067;35.492;-97.520;2023-09-19T00:41:06;5;5;
43479;PMS5003;29067;35.492;-97.520;2023-09-19T00:43:34;5;5;
43479;PMS5003;29067;35.492;-97.520;2023-09-19T00:46:02;5;5;
43479;PMS5003;29067;35.492;-97.520;2023-09-19T00:48:31;5;5;
43479;PMS5003;29067;35.492;-97.520;2023-09-19T00:51:05;3;3;
43479;PMS5003;29067;35.492;-97.520;2023-09-19T00:53:33;4;4;
43479;PMS5003;29067;35.492;-97.520;2023-09-19T00:56:02;4;4;
43479;PMS5003;29067;35.492;-97.520;2023-09-19T00:58:30;4;4;
43479;PMS5003;29067;35.492;-97.520;2023-09-19T01:00:58;5;5;
43479;PMS5003;29067;35.492;-97.520;2023-09-19T01:03:27;5;5;
43479;PMS5003;29067;35.492;-97.520;2023-09-19T01:05:55;5;5;
43479;PMS5003;29067;35.492;-97.520;2023-09-19T01:08:23;4;4;
43479;PMS5003;29067;35.492;-97.520;2023-09-19T01:10:52;2;2;
43479;PMS5003;29067;35.492;-97.520;2023-09-19T01:13:29;4;4;
43479;PMS5003;29067;35.492;-97.520;2023-09-19T01:16:06;7;5;
43479;PMS5003;29067;35.492;-97.520;2023-09-19T01:18:40;4;4;
43479;PMS5003;29067;35.492;-97.520;2023-09-19T01:21:21;3;3;
43479;PMS5003;29067;35.492;-97.520;2023-09-19T01:24:04;6;5;
43479;PMS5003;29067;35.492;-97.520;2023-09-19T01:26:56;4;3;
43479;PMS5003;29067;35.492;-97.520;2023-09-19T01:29:45;4;4;
43479;PMS5003;29067;35.492;-97.520;2023-09-19T01:32:16;5;5;
43479;PMS5003;29067;35.492;-97.520;2023-09-19T01:34:47;5;5;
43479;PMS5003;29067;35.492;-97.520;2023-09-19T01:37:17;6;6;
43479;PMS5003;29067;35.492;-97.520;2023-09-19T01:39:47;4;4;
43479;PMS5003;29067;35.492;-97.520;2023-09-19T01:42:21;5;5;
43479;PMS5003;29067;35.492;-97.520;2023-09-19T01:44:59;5;5;
43479;PMS5003;29067;35.492;-97.520;2023-09-19T01:47:37;5;5;
43479;PMS5003;29067;35.492;-97.520;2023-09-19T01:50:12;5;5;
43479;PMS5003;29067;35.492;-97.520;2023-09-19T01:52:47;7;6;
43479;PMS5003;29067;35.492;-97.520;2023-09-19T01:55:21;5;5;
43479;PMS5003;29067;35.492;-97.520;2023-09-19T01:57:54;4;3;
43479;PMS5003;29067;35.492;-97.520;2023-09-19T02:00:32;5;5;
43479;PMS5003;29067;35.492;-97.520;2023-09-19T02:03:04;5;5;
43479;PMS5003;29067;35.492;-97.520;2023-09-19T02:05:33;5;5;
43479;PMS5003;29067;35.492;-97.520;2023-09-19T02:08:01;5;5;
43479;PMS5003;29067;35.492;-97.520;2023-09-19T02:10:30;5;4;
43479;PMS5003;29067;35.492;-97.520;2023-09-19T02:12:58;5;5;
43479;PMS5003;29067;35.492;-97.520;2023-09-19T02:15:27;4;4;
43479;PMS5003;29067;35.492;-97.520;2023-09-19T02:17:55;5;5;
43479;PMS5003;29067;35.492;-97.520;2023-09-19T02:20:23;8;8;
43479;PMS5003;29067;35.492;-97.520;2023-09-19T02:22:53;5;5;
43479;PMS5003;29067;35.492;-97.520;2023-09-19T02:25:22;6;6;
43479;PMS5003;29067;35.492;-97.520;2023-09-19T02:27:50;5;5;
43479;PMS5003;29067;35.492;-97.520;2023-09-19T02:30:18;6;6;
43479;PMS5003;29067;35.492;-97.520;2023-09-19T02:32:47;6;5;
43479;PMS5003;29067;35.492;-97.520;2023-09-19T02:35:16;6;6;
43479;PMS5003;29067;35.492;-97.520;2023-09-19T02:37:44;7;6;
43479;PMS5003;29067;35.492;-97.520;2023-09-19T02:40:12;16;15;
43479;PMS5003;29067;35.492;-97.520;2023-09-19T02:42:42;21;21;
43479;PMS5003;29067;35.492;-97.520;2023-09-19T02:45:11;51;51;
43479;PMS5003;29067;35.492;-97.520;2023-09-19T02:47:40;64;63;
43479;PMS5003;29067;35.492;-97.520;2023-09-19T02:50:08;44;43;
43479;PMS5003;29067;35.492;-97.520;2023-09-19T02:52:36;56;56;
43479;PMS5003;29067;35.492;-97.520;2023-09-19T02:55:04;46;46;
43479;PMS5003;29067;35.492;-97.520;2023-09-19T02:57:32;111;111;
43479;PMS5003;29067;35.492;-97.520;2023-09-19T03:00:00;69;69;
43479;PMS5003;29067;35.492;-97.520;2023-09-19T03:02:28;19;18;
43479;PMS5003;29067;35.492;-97.520;2023-09-19T03:04:56;40;38;
43479;PMS5003;29067;35.492;-97.520;2023-09-19T03:07:24;43;43;
43479;PMS5003;29067;35.492;-97.520;2023-09-19T03:09:52;62;60;
43479;PMS5003;29067;35.492;-97.520;2023-09-19T03:12:20;27;25;
43479;PMS5003;29067;35.492;-97.520;2023-09-19T03:14:48;26;22;
43479;PMS5003;29067;35.492;-97.520;2023-09-19T03:17:16;27;24;
43479;PMS5003;29067;35.492;-97.520;2023-09-19T03:19:44;13;9;
43479;PMS5003;29067;35.492;-97.520;2023-09-19T03:22:13;14;11;
43479;PMS5003;29067;35.492;-97.520;2023-09-19T03:24:41;25;23;
43479;PMS5003;29067;35.492;-97.520;2023-09-19T03:27:09;26;23;
43479;PMS5003;29067;35.492;-97.520;2023-09-19T03:29:38;12;7;
43479;PMS5003;29067;35.492;-97.520;2023-09-19T03:32:05;13;10;
43479;PMS5003;29067;35.492;-97.520;2023-09-19T03:34:33;58;58;
43479;PMS5003;29067;35.492;-97.520;2023-09-19T03:37:03;11;8;
43479;PMS5003;29067;35.492;-97.520;2023-09-19T03:39:31;13;10;
43479;PMS5003;29067;35.492;-97.520;2023-09-19T03:41:59;16;13;
43479;PMS5003;29067;35.492;-97.520;2023-09-19T03:44:28;16;13;
43479;PMS5003;29067;35.492;-97.520;2023-09-19T03:46:56;15;12;
43479;PMS5003;29067;35.492;-97.520;2023-09-19T03:49:24;12;7;
43479;PMS5003;29067;35.492;-97.520;2023-09-19T03:51:52;36;33;
43479;PMS5003;29067;35.492;-97.520;2023-09-19T03:54:20;32;28;
43479;PMS5003;29067;35.492;-97.520;2023-09-19T03:56:48;75;72;
43479;PMS5003;29067;35.492;-97.520;2023-09-19T03:59:17;82;81;
43479;PMS5003;29067;35.492;-97.520;2023-09-19T04:01:45;11;6;
43479;PMS5003;29067;35.492;-97.520;2023-09-19T04:04:13;13;10;
43479;PMS5003;29067;35.492;-97.520;2023-09-19T04:06:42;14;11;
43479;PMS5003;29067;35.492;-97.520;2023-09-19T04:09:09;11;7;
43479;PMS5003;29067;35.492;-97.520;2023-09-19T04:11:37;15;11;
43479;PMS5003;29067;35.492;-97.520;2023-09-19T04:14:05;15;12;
43479;PMS5003;29067;35.492;-97.520;2023-09-19T04:16:32;21;18;
43479;PMS5003;29067;35.492;-97.520;2023-09-19T04:19:00;24;20;
43479;PMS5003;29067;35.492;-97.520;2023-09-19T04:21:29;19;15;
43479;PMS5003;29067;35.492;-97.520;2023-09-19T04:23:56;20;16;
43479;PMS5003;29067;35.492;-97.520;2023-09-19T04:26:24;24;18;
43479;PMS5003;29067;35.492;-97.520;2023-09-19T04:28:52;37;35;
43479;PMS5003;29067;35.492;-97.520;2023-09-19T04:31:20;43;39;
43479;PMS5003;29067;35.492;-97.520;2023-09-19T04:33:48;62;59;
43479;PMS5003;29067;35.492;-97.520;2023-09-19T04:36:16;71;68;
43479;PMS5003;29067;35.492;-97.520;2023-09-19T04:38:44;90;85;
43479;PMS5003;29067;35.492;-97.520;2023-09-19T04:41:13;89;86;
43479;PMS5003;29067;35.492;-97.520;2023-09-19T04:43:40;42;39;
43479;PMS5003;29067;35.492;-97.520;2023-09-19T04:46:09;37;34;
43479;PMS5003;29067;35.492;-97.520;2023-09-19T04:48:36;47;43;
43479;PMS5003;29067;35.492;-97.520;2023-09-19T04:51:04;49;46;
43479;PMS5003;29067;35.492;-97.520;2023-09-19T04:53:32;32;28;
43479;PMS5003;29067;35.492;-97.520;2023-09-19T04:56:00;20;16;
43479;PMS5003;29067;35.492;-97.520;2023-09-19T04:58:28;25;21;
43479;PMS5003;29067;35.492;-97.520;2023-09-19T05:00:56;34;31;
43479;PMS5003;29067;35.492;-97.520;2023-09-19T05:03:24;47;44;
43479;PMS5003;29067;35.492;-97.520;2023-09-19T05:05:52;75;72;
43479;PMS5003;29067;35.492;-97.520;2023-09-19T05:08:20;77;74;
43479;PMS5003;29067;35.492;-97.520;2023-09-19T05:10:48;71;68;
43479;PMS5003;29067;35.492;-97.520;2023-09-19T05:13:16;75;72;
43479;PMS5003;29067;35.492;-97.520;2023-09-19T05:15:44;67;63;
43479;PMS5003;29067;35.492;-97.520;2023-09-19T05:18:12;31;28;
43479;PMS5003;29067;35.492;-97.520;2023-09-19T05:20:40;25;22;
43479;PMS5003;29067;35.492;-97.520;2023-09-19T05:23:08;30;27;
43479;PMS5003;29067;35.492;-97.520;2023-09-19T05:25:36;42;39;
43479;PMS5003;29067;35.492;-97.520;2023-09-19T05:28:06;32;29;
43479;PMS5003;29067;35.492;-97.520;2023-09-19T05:30:35;26;22;
43479;PMS5003;29067;35.492;-97.520;2023-09-19T05:33:03;23;19;
43479;PMS5003;29067;35.492;-97.520;2023-09-19T05:35:32;31;27;
43479;PMS5003;29067;35.492;-97.520;2023-09-19T05:37:59;50;45;
43479;PMS5003;29067;35.492;-97.520;2023-09-19T05:40:28;51;47;
43479;PMS5003;29067;35.492;-97.520;2023-09-19T05:42:56;59;56;
43479;PMS5003;29067;35.492;-97.520;2023-09-19T05:45:24;78;75;
43479;PMS5003;29067;35.492;-97.520;2023-09-19T05:47:53;122;118;
43479;PMS5003;29067;35.492;-97.520;2023-09-19T05:50:21;124;120;
43479;PMS5003;29067;35.492;-97.520;2023-09-19T05:52:53;120;117;
43479;PMS5003;29067;35.492;-97.520;2023-09-19T05:55:22;110;107;
43479;PMS5003;29067;35.492;-97.520;2023-09-19T05:57:50;111;107;
43479;PMS5003;29067;35.492;-97.520;2023-09-19T06:00:19;126;123;
43479;PMS5003;29067;35.492;-97.520;2023-09-19T06:02:49;167;165;
43479;PMS5003;29067;35.492;-97.520;2023-09-19T06:05:19;99;96;
43479;PMS5003;29067;35.492;-97.520;2023-09-19T06:07:48;63;59;
43479;PMS5003;29067;35.492;-97.520;2023-09-19T06:10:16;127;127;
43479;PMS5003;29067;35.492;-97.520;2023-09-19T06:12:45;124;120;
43479;PMS5003;29067;35.492;-97.520;2023-09-19T06:15:14;82;82;
43479;PMS5003;29067;35.492;-97.520;2023-09-19T06:17:43;18;15;
43479;PMS5003;29067;35.492;-97.520;2023-09-19T06:20:14;7;7;
43479;PMS5003;29067;35.492;-97.520;2023-09-19T06:22:42;8;8;
43479;PMS5003;29067;35.492;-97.520;2023-09-19T06:25:12;9;8;
43479;PMS5003;29067;35.492;-97.520;2023-09-19T06:27:41;8;8;
43479;PMS5003;29067;35.492;-97.520;2023-09-19T06:30:10;11;10;
43479;PMS5003;29067;35.492;-97.520;2023-09-19T06:32:38;9;9;
43479;PMS5003;29067;35.492;-97.520;2023-09-19T06:35:07;10;9;
43479;PMS5003;29067;35.492;-97.520;2023-09-19T06:37:35;8;8;
43479;PMS5003;29067;35.492;-97.520;2023-09-19T06:40:05;10;10;
43479;PMS5003;29067;35.492;-97.520;2023-09-19T06:42:34;9;9;
43479;PMS5003;29067;35.492;-97.520;2023-09-19T06:45:03;9;9;
43479;PMS5003;29067;35.492;-97.520;2023-09-19T06:47:32;11;9;
43479;PMS5003;29067;35.492;-97.520;2023-09-19T06:50:00;7;7;
43479;PMS5003;29067;35.492;-97.520;2023-09-19T06:52:28;9;8;
43479;PMS5003;29067;35.492;-97.520;2023-09-19T06:54:57;6;6;
43479;PMS5003;29067;35.492;-97.520;2023-09-19T06:57:25;9;8;
43479;PMS5003;29067;35.492;-97.520;2023-09-19T06:59:54;9;9;
43479;PMS5003;29067;35.492;-97.520;2023-09-19T07:02:21;11;10;
43479;PMS5003;29067;35.492;-97.520;2023-09-19T07:04:49;10;10;
43479;PMS5003;29067;35.492;-97.520;2023-09-19T07:07:17;10;10;
43479;PMS5003;29067;35.492;-97.520;2023-09-19T07:09:44;7;7;
43479;PMS5003;29067;35.492;-97.520;2023-09-19T07:12:13;11;11;
43479;PMS5003;29067;35.492;-97.520;2023-09-19T07:14:42;10;9;
43479;PMS5003;29067;35.492;-97.520;2023-09-19T07:17:10;8;8;
43479;PMS5003;29067;35.492;-97.520;2023-09-19T07:19:37;8;7;
43479;PMS5003;29067;35.492;-97.520;2023-09-19T07:22:05;10;9;
43479;PMS5003;29067;35.492;-97.520;2023-09-19T07:24:32;9;8;
43479;PMS5003;29067;35.492;-97.520;2023-09-19T07:27:00;9;8;
43479;PMS5003;29067;35.492;-97.520;2023-09-19T07:29:28;11;10;
43479;PMS5003;29067;35.492;-97.520;2023-09-19T07:31:56;10;9;
43479;PMS5003;29067;35.492;-97.520;2023-09-19T07:34:23;9;8;
43479;PMS5003;29067;35.492;-97.520;2023-09-19T07:36:51;10;9;
43479;PMS5003;29067;35.492;-97.520;2023-09-19T07:39:19;10;10;
43479;PMS5003;29067;35.492;-97.520;2023-09-19T07:41:48;9;9;
43479;PMS5003;29067;35.492;-97.520;2023-09-19T07:44:16;9;9;
43479;PMS5003;29067;35.492;-97.520;2023-09-19T07:46:45;8;8;
43479;PMS5003;29067;35.492;-97.520;2023-09-19T07:49:14;10;9;
43479;PMS5003;29067;35.492;-97.520;2023-09-19T07:51:42;11;9;
43479;PMS5003;29067;35.492;-97.520;2023-09-19T07:54:10;9;9;
43479;PMS5003;29067;35.492;-97.520;2023-09-19T07:56:37;11;10;
43479;PMS5003;29067;35.492;-97.520;2023-09-19T07:59:05;8;8;
43479;PMS5003;29067;35.492;-97.520;2023-09-19T08:01:33;8;8;
43479;PMS5003;29067;35.492;-97.520;2023-09-19T08:04:02;10;10;
43479;PMS5003;29067;35.492;-97.520;2023-09-19T08:06:30;7;7;
43479;PMS5003;29067;35.492;-97.520;2023-09-19T08:08:58;14;11;
43479;PMS5003;29067;35.492;-97.520;2023-09-19T08:11:26;8;8;
43479;PMS5003;29067;35.492;-97.520;2023-09-19T08:13:53;10;10;
43479;PMS5003;29067;35.492;-97.520;2023-09-19T08:16:22;10;10;
43479;PMS5003;29067;35.492;-97.520;2023-09-19T08:18:50;10;9;
43479;PMS5003;29067;35.492;-97.520;2023-09-19T08:21:17;9;8;
43479;PMS5003;29067;35.492;-97.520;2023-09-19T08:23:45;9;9;
43479;PMS5003;29067;35.492;-97.520;2023-09-19T08:26:13;7;7;
43479;PMS5003;29067;35.492;-97.520;2023-09-19T08:28:40;11;11;
43479;PMS5003;29067;35.492;-97.520;2023-09-19T08:31:09;10;10;
43479;PMS5003;29067;35.492;-97.520;2023-09-19T08:33:37;11;11;
43479;PMS5003;29067;35.492;-97.520;2023-09-19T08:36:07;11;10;
43479;PMS5003;29067;35.492;-97.520;2023-09-19T08:38:35;11;11;
43479;PMS5003;29067;35.492;-97.520;2023-09-19T08:41:05;12;11;
43479;PMS5003;29067;35.492;-97.520;2023-09-19T08:43:35;10;10;
43479;PMS5003;29067;35.492;-97.520;2023-09-19T08:46:10;11;10;
43479;PMS5003;29067;35.492;-97.520;2023-09-19T08:48:44;9;9;
43479;PMS5003;29067;35.492;-97.520;2023-09-19T08:51:16;11;10;
43479;PMS5003;29067;35.492;-97.520;2023-09-19T08:53:52;10;10;
43479;PMS5003;29067;35.492;-97.520;2023-09-19T08:56:29;11;11;
43479;PMS5003;29067;35.492;-97.520;2023-09-19T08:59:00;9;9;
43479;PMS5003;29067;35.492;-97.520;2023-09-19T09:01:31;10;10;
43479;PMS5003;29067;35.492;-97.520;2023-09-19T09:04:01;9;9;
43479;PMS5003;29067;35.492;-97.520;2023-09-19T09:06:29;10;9;
43479;PMS5003;29067;35.492;-97.520;2023-09-19T09:08:57;8;8;
43479;PMS5003;29067;35.492;-97.520;2023-09-19T09:11:26;7;7;
43479;PMS5003;29067;35.492;-97.520;2023-09-19T09:13:54;9;8;
43479;PMS5003;29067;35.492;-97.520;2023-09-19T09:16:23;10;10;
43479;PMS5003;29067;35.492;-97.520;2023-09-19T09:18:51;9;9;
43479;PMS5003;29067;35.492;-97.520;2023-09-19T09:21:20;13;9;
43479;PMS5003;29067;35.492;-97.520;2023-09-19T09:23:49;10;9;
43479;PMS5003;29067;35.492;-97.520;2023-09-19T09:26:17;9;8;
43479;PMS5003;29067;35.492;-97.520;2023-09-19T09:29:08;10;10;
43479;PMS5003;29067;35.492;-97.520;2023-09-19T09:31:35;9;8;
43479;PMS5003;29067;35.492;-97.520;2023-09-19T09:34:03;9;9;
43479;PMS5003;29067;35.492;-97.520;2023-09-19T09:36:34;9;9;
43479;PMS5003;29067;35.492;-97.520;2023-09-19T09:39:03;10;10;
43479;PMS5003;29067;35.492;-97.520;2023-09-19T09:41:35;11;9;
43479;PMS5003;29067;35.492;-97.520;2023-09-19T09:44:11;10;10;
43479;PMS5003;29067;35.492;-97.520;2023-09-19T09:46:42;10;10;
43479;PMS5003;29067;35.492;-97.520;2023-09-19T09:49:10;9;9;
43479;PMS5003;29067;35.492;-97.520;2023-09-19T09:51:39;10;10;
43479;PMS5003;29067;35.492;-97.520;2023-09-19T09:54:10;10;10;
43479;PMS5003;29067;35.492;-97.520;2023-09-19T09:56:51;9;8;
43479;PMS5003;29067;35.492;-97.520;2023-09-19T09:59:21;9;9;
43479;PMS5003;29067;35.492;-97.520;2023-09-19T10:01:49;13;12;
43479;PMS5003;29067;35.492;-97.520;2023-09-19T10:04:28;11;11;
43479;PMS5003;29067;35.492;-97.520;2023-09-19T10:06:56;10;10;
43479;PMS5003;29067;35.492;-97.520;2023-09-19T10:09:25;13;12;
43479;PMS5003;29067;35.492;-97.520;2023-09-19T10:11:59;13;13;
43479;PMS5003;29067;35.492;-97.520;2023-09-19T10:14:34;11;10;
43479;PMS5003;29067;35.492;-97.520;2023-09-19T10:17:05;15;12;
43479;PMS5003;29067;35.492;-97.520;2023-09-19T10:19:37;14;12;
43479;PMS5003;29067;35.492;-97.520;2023-09-19T10:22:09;11;11;
43479;PMS5003;29067;35.492;-97.520;2023-09-19T10:24:38;10;10;
43479;PMS5003;29067;35.492;-97.520;2023-09-19T10:27:07;15;14;
43479;PMS5003;29067;35.492;-97.520;2023-09-19T10:29:34;13;13;
43479;PMS5003;29067;35.492;-97.520;2023-09-19T10:32:06;11;11;
43479;PMS5003;29067;35.492;-97.520;2023-09-19T10:34:35;11;10;
43479;PMS5003;29067;35.492;-97.520;2023-09-19T10:37:03;10;10;
43479;PMS5003;29067;35.492;-97.520;2023-09-19T10:39:32;10;10;
43479;PMS5003;29067;35.492;-97.520;2023-09-19T10:42:02;11;11;
43479;PMS5003;29067;35.492;-97.520;2023-09-19T10:44:33;16;14;
43479;PMS5003;29067;35.492;-97.520;2023-09-19T10:47:04;11;11;
43479;PMS5003;29067;35.492;-97.520;2023-09-19T10:49:33;12;12;
43479;PMS5003;29067;35.492;-97.520;2023-09-19T10:52:01;11;10;
43479;PMS5003;29067;35.492;-97.520;2023-09-19T10:54:33;11;11;
43479;PMS5003;29067;35.492;-97.520;2023-09-19T10:57:02;11;11;
43479;PMS5003;29067;35.492;-97.520;2023-09-19T10:59:30;10;10;
43479;PMS5003;29067;35.492;-97.520;2023-09-19T11:03:32;10;10;
43479;PMS5003;29067;35.492;-97.520;2023-09-19T11:06:02;10;9;
43479;PMS5003;29067;35.492;-97.520;2023-09-19T11:08:33;12;11;
43479;PMS5003;29067;35.492;-97.520;2023-09-19T11:11:40;9;9;
43479;PMS5003;29067;35.492;-97.520;2023-09-19T11:14:15;9;9;
43479;PMS5003;29067;35.492;-97.520;2023-09-19T11:17:30;11;11;
43479;PMS5003;29067;35.492;-97.520;2023-09-19T11:20:31;10;10;
43479;PMS5003;29067;35.492;-97.520;2023-09-19T11:23:32;10;10;
43479;PMS5003;29067;35.492;-97.520;2023-09-19T11:26:00;7;7;
43479;PMS5003;29067;35.492;-97.520;2023-09-19T11:28:28;11;11;
43479;PMS5003;29067;35.492;-97.520;2023-09-19T11:31:41;10;9;
43479;PMS5003;29067;35.492;-97.520;2023-09-19T11:35:15;12;10;
43479;PMS5003;29067;35.492;-97.520;2023-09-19T11:38:13;11;11;
43479;PMS5003;29067;35.492;-97.520;2023-09-19T11:40:44;11;11;
43479;PMS5003;29067;35.492;-97.520;2023-09-19T11:43:28;11;11;
43479;PMS5003;29067;35.492;-97.520;2023-09-19T11:46:02;12;12;
43479;PMS5003;29067;35.492;-97.520;2023-09-19T11:48:32;13;12;
43479;PMS5003;29067;35.492;-97.520;2023-09-19T11:51:01;10;10;
43479;PMS5003;29067;35.492;-97.520;2023-09-19T11:53:38;12;12;
43479;PMS5003;29067;35.492;-97.520;2023-09-19T11:56:07;15;14;
43479;PMS5003;29067;35.492;-97.520;2023-09-19T11:58:37;12;11;
43479;PMS5003;29067;35.492;-97.520;2023-09-19T12:01:07;13;13;
43479;PMS5003;29067;35.492;-97.520;2023-09-19T12:03:38;12;12;
43479;PMS5003;29067;35.492;-97.520;2023-09-19T12:06:12;10;10;
43479;PMS5003;29067;35.492;-97.520;2023-09-19T12:08:41;14;12;
43479;PMS5003;29067;35.492;-97.520;2023-09-19T12:11:13;11;10;
43479;PMS5003;29067;35.492;-97.520;2023-09-19T12:13:43;12;12;
43479;PMS5003;29067;35.492;-97.520;2023-09-19T12:16:12;11;11;
43479;PMS5003;29067;35.492;-97.520;2023-09-19T12:18:41;13;12;
43479;PMS5003;29067;35.492;-97.520;2023-09-19T12:21:26;10;10;
43479;PMS5003;29067;35.492;-97.520;2023-09-19T12:23:59;13;13;
43479;PMS5003;29067;35.492;-97.520;2023-09-19T12:26:38;11;10;
43479;PMS5003;29067;35.492;-97.520;2023-09-19T12:29:10;11;11;
43479;PMS5003;29067;35.492;-97.520;2023-09-19T12:31:48;13;13;
43479;PMS5003;29067;35.492;-97.520;2023-09-19T12:34:19;10;10;
43479;PMS5003;29067;35.492;-97.520;2023-09-19T12:36:48;12;12;
43479;PMS5003;29067;35.492;-97.520;2023-09-19T12:39:30;13;12;
43479;PMS5003;29067;35.492;-97.520;2023-09-19T12:41:57;12;11;
43479;PMS5003;29067;35.492;-97.520;2023-09-19T12:44:26;11;11;
43479;PMS5003;29067;35.492;-97.520;2023-09-19T12:46:55;14;13;
43479;PMS5003;29067;35.492;-97.520;2023-09-19T12:49:24;15;12;
43479;PMS5003;29067;35.492;-97.520;2023-09-19T12:51:57;10;10;
43479;PMS5003;29067;35.492;-97.520;2023-09-19T12:54:28;12;12;
43479;PMS5003;29067;35.492;-97.520;2023-09-19T12:57:05;9;9;
43479;PMS5003;29067;35.492;-97.520;2023-09-19T12:59:33;12;12;
43479;PMS5003;29067;35.492;-97.520;2023-09-19T13:02:03;14;13;
43479;PMS5003;29067;35.492;-97.520;2023-09-19T13:04:32;12;12;
43479;PMS5003;29067;35.492;-97.520;2023-09-19T13:07:01;14;12;
43479;PMS5003;29067;35.492;-97.520;2023-09-19T13:09:29;12;12;
43479;PMS5003;29067;35.492;-97.520;2023-09-19T13:11:57;16;14;
43479;PMS5003;29067;35.492;-97.520;2023-09-19T13:14:25;15;14;
43479;PMS5003;29067;35.492;-97.520;2023-09-19T13:16:56;13;12;
43479;PMS5003;29067;35.492;-97.520;2023-09-19T13:19:41;13;13;
43479;PMS5003;29067;35.492;-97.520;2023-09-19T13:22:44;14;14;
43479;PMS5003;29067;35.492;-97.520;2023-09-19T13:25:13;15;14;
43479;PMS5003;29067;35.492;-97.520;2023-09-19T13:27:43;13;12;
43479;PMS5003;29067;35.492;-97.520;2023-09-19T13:30:11;14;13;
43479;PMS5003;29067;35.492;-97.520;2023-09-19T13:32:40;13;12;
43479;PMS5003;29067;35.492;-97.520;2023-09-19T13:35:08;13;13;
43479;PMS5003;29067;35.492;-97.520;2023-09-19T13:37:38;12;12;
43479;PMS5003;29067;35.492;-97.520;2023-09-19T13:40:07;10;10;
43479;PMS5003;29067;35.492;-97.520;2023-09-19T13:42:36;10;10;
43479;PMS5003;29067;35.492;-97.520;2023-09-19T13:45:05;10;10;
43479;PMS5003;29067;35.492;-97.520;2023-09-19T13:47:34;11;10;
43479;PMS5003;29067;35.492;-97.520;2023-09-19T13:50:07;12;12;
43479;PMS5003;29067;35.492;-97.520;2023-09-19T13:52:36;12;12;
43479;PMS5003;29067;35.492;-97.520;2023-09-19T13:55:04;14;14;
43479;PMS5003;29067;35.492;-97.520;2023-09-19T13:57:32;13;13;
43479;PMS5003;29067;35.492;-97.520;2023-09-19T14:00:00;15;14;
43479;PMS5003;29067;35.492;-97.520;2023-09-19T14:02:28;12;12;
43479;PMS5003;29067;35.492;-97.520;2023-09-19T14:04:55;13;13;
43479;PMS5003;29067;35.492;-97.520;2023-09-19T14:07:23;13;13;
43479;PMS5003;29067;35.492;-97.520;2023-09-19T14:09:51;15;15;
43479;PMS5003;29067;35.492;-97.520;2023-09-19T14:12:19;14;13;
43479;PMS5003;29067;35.492;-97.520;2023-09-19T14:14:47;14;13;
43479;PMS5003;29067;35.492;-97.520;2023-09-19T14:17:14;10;10;
43479;PMS5003;29067;35.492;-97.520;2023-09-19T14:19:42;14;14;
43479;PMS5003;29067;35.492;-97.520;2023-09-19T14:22:10;11;11;
43479;PMS5003;29067;35.492;-97.520;2023-09-19T14:24:38;14;13;
43479;PMS5003;29067;35.492;-97.520;2023-09-19T14:27:06;12;11;
43479;PMS5003;29067;35.492;-97.520;2023-09-19T14:29:34;11;10;
43479;PMS5003;29067;35.492;-97.520;2023-09-19T14:32:02;13;13;
43479;PMS5003;29067;35.492;-97.520;2023-09-19T14:34:30;12;12;
43479;PMS5003;29067;35.492;-97.520;2023-09-19T14:36:58;14;13;
43479;PMS5003;29067;35.492;-97.520;2023-09-19T14:39:26;14;14;
43479;PMS5003;29067;35.492;-97.520;2023-09-19T14:41:54;14;14;
43479;PMS5003;29067;35.492;-97.520;2023-09-19T14:44:22;11;11;
43479;PMS5003;29067;35.492;-97.520;2023-09-19T14:46:50;14;13;
43479;PMS5003;29067;35.492;-97.520;2023-09-19T14:49:18;14;14;
43479;PMS5003;29067;35.492;-97.520;2023-09-19T14:51:46;16;15;
43479;PMS5003;29067;35.492;-97.520;2023-09-19T14:54:14;14;13;
43479;PMS5003;29067;35.492;-97.520;2023-09-19T14:56:42;14;14;
43479;PMS5003;29067;35.492;-97.520;2023-09-19T14:59:16;15;14;
43479;PMS5003;29067;35.492;-97.520;2023-09-19T15:01:44;16;16;
43479;PMS5003;29067;35.492;-97.520;2023-09-19T15:04:12;15;14;
43479;PMS5003;29067;35.492;-97.520;2023-09-19T15:06:39;15;14;
43479;PMS5003;29067;35.492;-97.520;2023-09-19T15:09:08;15;14;
43479;PMS5003;29067;35.492;-97.520;2023-09-19T15:11:35;16;16;
43479;PMS5003;29067;35.492;-97.520;2023-09-19T15:14:03;15;15;
43479;PMS5003;29067;35.492;-97.520;2023-09-19T15:16:31;15;15;
43479;PMS5003;29067;35.492;-97.520;2023-09-19T15:18:58;17;17;
43479;PMS5003;29067;35.492;-97.520;2023-09-19T15:21:26;15;15;
43479;PMS5003;29067;35.492;-97.520;2023-09-19T15:23:53;15;15;
43479;PMS5003;29067;35.492;-97.520;2023-09-19T15:26:21;16;15;
43479;PMS5003;29067;35.492;-97.520;2023-09-19T15:28:49;15;15;
43479;PMS5003;29067;35.492;-97.520;2023-09-19T15:31:16;16;14;
43479;PMS5003;29067;35.492;-97.520;2023-09-19T15:33:46;18;18;
43479;PMS5003;29067;35.492;-97.520;2023-09-19T15:36:14;22;18;
43479;PMS5003;29067;35.492;-97.520;2023-09-19T15:38:58;18;17;
43479;PMS5003;29067;35.492;-97.520;2023-09-19T15:41:28;19;19;
43479;PMS5003;29067;35.492;-97.520;2023-09-19T15:43:56;17;17;
43479;PMS5003;29067;35.492;-97.520;2023-09-19T15:46:26;17;15;
43479;PMS5003;29067;35.492;-97.520;2023-09-19T15:48:54;19;19;
43479;PMS5003;29067;35.492;-97.520;2023-09-19T15:51:23;18;17;
43479;PMS5003;29067;35.492;-97.520;2023-09-19T15:53:52;16;16;
43479;PMS5003;29067;35.492;-97.520;2023-09-19T15:56:22;16;16;
43479;PMS5003;29067;35.492;-97.520;2023-09-19T15:58:55;13;13;
43479;PMS5003;29067;35.492;-97.520;2023-09-19T16:01:23;16;15;
43479;PMS5003;29067;35.492;-97.520;2023-09-19T16:03:51;13;13;
43479;PMS5003;29067;35.492;-97.520;2023-09-19T16:06:21;14;14;
43479;PMS5003;29067;35.492;-97.520;2023-09-19T16:08:51;13;13;
43479;PMS5003;29067;35.492;-97.520;2023-09-19T16:11:20;11;10;
43479;PMS5003;29067;35.492;-97.520;2023-09-19T16:13:48;14;13;
43479;PMS5003;29067;35.492;-97.520;2023-09-19T16:16:18;11;11;